Time;durP1;ratioP1;P1;durP2;ratioP2;P2;SDS_P1;SDS_P2;PMS_P1;PMS_P2;Temp;Humidity;BMP_temperature;BMP_pressure;BME280_temperature;BME280_humidity;BME280_pressure;Samples;Min_cycle;Max_cycle;Signal;HPM_P1;HPM_P2
2022/12/30 00:01:46;;;;;;;11.17;3.60;;;6.80;99.90;;;;;;5047155;28;20456;-84
2022/12/30 00:04:13;;;;;;;15.80;4.03;;;6.80;99.90;;;;;;5047773;28;20754;-84
2022/12/30 00:06:40;;;;;;;17.07;3.97;;;6.70;99.90;;;;;;5046760;28;20475;-83
2022/12/30 00:09:07;;;;;;;16.33;4.40;;;6.70;99.90;;;;;;5047875;28;20484;-84
2022/12/30 00:11:35;;;;;;;11.17;2.97;;;6.60;99.90;;;;;;5046244;28;20456;-84
2022/12/30 00:33:45;;;;;;;11.77;4.60;;;6.70;99.90;;;;;;5046302;28;20439;-84
2022/12/30 00:36:12;;;;;;;11.80;5.10;;;6.50;99.90;;;;;;5045788;28;20470;-84
2022/12/30 00:38:38;;;;;;;13.37;3.50;;;6.70;99.90;;;;;;5047042;28;20444;-84
2022/12/30 00:44:01;;;;;;;7.60;3.90;;;6.50;99.90;;;;;;4965546;28;20516;-85
2022/12/30 00:46:28;;;;;;;22.53;4.63;;;6.60;99.90;;;;;;5025885;28;20992;-84
2022/12/30 00:57:09;;;;;;;8.57;3.90;;;6.40;99.90;;;;;;5046841;28;20491;-85
2022/12/30 00:59:36;;;;;;;13.47;3.20;;;6.30;99.90;;;;;;5045852;28;20464;-84
2022/12/30 01:02:03;;;;;;;26.80;7.47;;;6.30;99.90;;;;;;5045214;28;20898;-83
2022/12/30 01:04:31;;;;;;;26.87;5.83;;;6.50;99.90;;;;;;5043974;28;20459;-84
2022/12/30 01:06:58;;;;;;;15.43;5.70;;;6.30;99.90;;;;;;5043430;28;20468;-84
2022/12/30 01:09:25;;;;;;;11.07;3.50;;;6.60;99.90;;;;;;5046126;28;20468;-84
2022/12/30 01:14:32;;;;;;;10.73;3.70;;;6.30;99.90;;;;;;5046085;28;20941;-82
2022/12/30 01:16:59;;;;;;;16.73;4.63;;;6.20;99.90;;;;;;5046216;28;20464;-84
2022/12/30 01:19:26;;;;;;;8.80;4.20;;;6.10;99.90;;;;;;5045918;28;20457;-84
2022/12/30 01:21:54;;;;;;;9.57;3.77;;;6.10;99.90;;;;;;5046182;28;20452;-84
2022/12/30 01:24:21;;;;;;;14.10;4.50;;;6.20;99.90;;;;;;5044843;28;20448;-84
2022/12/30 01:26:47;;;;;;;12.40;4.40;;;6.10;99.90;;;;;;5043993;28;20471;-84
2022/12/30 01:29:19;;;;;;;12.50;3.93;;;6.10;99.90;;;;;;5043424;28;20476;-84
2022/12/30 01:31:45;;;;;;;19.53;4.37;;;6.10;99.90;;;;;;5045098;28;20472;-84
2022/12/30 01:34:12;;;;;;;22.97;5.10;;;6.00;99.90;;;;;;5045462;28;20483;-83
2022/12/30 01:36:39;;;;;;;21.60;5.03;;;6.00;99.90;;;;;;5045431;28;20480;-84
2022/12/30 01:39:07;;;;;;;22.47;5.53;;;6.00;99.90;;;;;;5045760;28;20456;-84
2022/12/30 01:41:34;;;;;;;15.33;5.70;;;6.00;99.90;;;;;;5045588;28;20459;-83
2022/12/30 01:44:00;;;;;;;12.83;5.07;;;6.00;99.90;;;;;;5045604;28;20459;-84
2022/12/30 01:46:32;;;;;;;14.40;5.53;;;5.90;99.90;;;;;;5043297;28;20506;-83
2022/12/30 01:49:00;;;;;;;10.70;5.00;;;5.90;99.90;;;;;;5045138;28;20823;-84
2022/12/30 01:51:30;;;;;;;11.23;6.40;;;5.80;99.90;;;;;;5045927;28;20459;-84
2022/12/30 01:54:01;;;;;;;11.10;7.70;;;5.80;99.90;;;;;;5044798;28;20464;-84
2022/12/30 01:56:33;;;;;;;25.73;8.07;;;5.80;99.90;;;;;;5044477;28;20479;-84
2022/12/30 01:59:03;;;;;;;10.67;7.30;;;5.80;99.90;;;;;;5044366;28;20452;-85
2022/12/30 02:01:31;;;;;;;12.83;7.00;;;5.70;99.90;;;;;;5045799;28;20478;-84
2022/12/30 02:04:01;;;;;;;15.73;6.77;;;5.70;99.90;;;;;;5044254;28;20460;-83
2022/12/30 02:06:38;;;;;;;11.30;9.50;;;5.60;99.90;;;;;;5045397;28;20555;-84
2022/12/30 02:09:05;;;;;;;10.00;9.10;;;5.60;99.90;;;;;;5045280;28;20482;-84
2022/12/30 02:11:34;;;;;;;12.70;9.53;;;5.60;99.90;;;;;;5044597;28;20448;-84
2022/12/30 02:14:01;;;;;;;14.13;8.87;;;5.50;99.90;;;;;;5045917;28;20498;-84
2022/12/30 02:16:39;;;;;;;17.63;9.73;;;5.40;99.90;;;;;;5044177;28;21025;-83
2022/12/30 02:19:46;;;;;;;15.07;12.30;;;5.40;99.90;;;;;;5045969;28;20515;-84
2022/12/30 02:22:24;;;;;;;12.77;11.40;;;5.30;99.90;;;;;;5045983;28;20452;-84
2022/12/30 02:25:22;;;;;;;11.37;9.90;;;5.40;99.90;;;;;;5045045;28;20968;-83
2022/12/30 02:28:21;;;;;;;12.87;11.00;;;5.40;99.90;;;;;;5046003;28;20452;-84
2022/12/30 02:31:21;;;;;;;13.43;12.07;;;5.30;99.90;;;;;;5045702;28;20511;-84
2022/12/30 02:33:56;;;;;;;24.43;19.80;;;5.20;99.90;;;;;;5045528;28;20445;-84
2022/12/30 02:36:31;;;;;;;19.27;18.17;;;5.20;99.90;;;;;;5044830;28;20980;-84
2022/12/30 02:39:05;;;;;;;29.57;27.50;;;5.10;99.90;;;;;;5045277;28;20466;-84
2022/12/30 02:44:39;;;;;;;29.17;26.67;;;5.10;99.90;;;;;;5045574;28;20435;-83
2022/12/30 02:47:13;;;;;;;35.60;32.80;;;5.10;99.90;;;;;;5044327;28;20502;-84
2022/12/30 02:49:43;;;;;;;38.07;35.40;;;5.10;99.90;;;;;;5045050;28;20463;-84
2022/12/30 02:52:15;;;;;;;38.73;36.27;;;5.20;99.90;;;;;;5043321;28;20448;-83
2022/12/30 02:54:43;;;;;;;48.17;45.03;;;5.10;99.90;;;;;;5042224;28;20494;-84
2022/12/30 02:57:25;;;;;;;43.47;40.57;;;5.00;99.90;;;;;;5042990;28;20496;-84
2022/12/30 03:05:49;;;;;;;58.37;55.23;;;4.90;99.90;;;;;;5041560;28;20467;-84
2022/12/30 03:08:24;;;;;;;79.63;75.23;;;4.80;99.90;;;;;;5042803;28;20452;-84
2022/12/30 03:11:16;;;;;;;110.23;105.33;;;4.70;99.90;;;;;;5042505;28;20463;-84
2022/12/30 03:13:51;;;;;;;127.30;121.83;;;4.70;99.90;;;;;;5042200;28;20462;-83
2022/12/30 03:16:23;;;;;;;138.47;133.07;;;4.70;99.90;;;;;;5042803;28;20478;-84
2022/12/30 03:18:52;;;;;;;140.37;135.03;;;4.70;99.90;;;;;;5044298;28;20456;-84
2022/12/30 03:21:20;;;;;;;99.53;94.43;;;4.80;99.90;;;;;;5044271;28;20449;-83
2022/12/30 03:29:26;;;;;;;21.30;19.10;;;5.00;99.90;;;;;;5046130;28;20486;-83
2022/12/30 03:31:54;;;;;;;13.83;11.80;;;4.80;99.90;;;;;;5047077;28;20486;-84
2022/12/30 03:34:23;;;;;;;13.43;7.60;;;4.80;99.90;;;;;;5046823;28;20842;-85
2022/12/30 03:36:53;;;;;;;12.43;8.20;;;4.60;99.90;;;;;;5047523;28;20479;-84
2022/12/30 03:39:25;;;;;;;10.77;9.83;;;4.50;99.90;;;;;;5046574;28;20459;-83
2022/12/30 03:41:53;;;;;;;25.20;21.27;;;4.40;99.90;;;;;;5047102;28;20443;-83
2022/12/30 03:44:20;;;;;;;52.03;49.30;;;4.20;99.90;;;;;;5046241;28;20455;-83
2022/12/30 03:46:49;;;;;;;103.10;98.30;;;4.20;99.90;;;;;;5045575;28;20483;-83
2022/12/30 03:49:16;;;;;;;108.87;104.67;;;4.10;99.90;;;;;;5045970;28;20716;-83
2022/12/30 03:51:44;;;;;;;114.63;109.40;;;4.10;99.90;;;;;;5046417;28;20466;-83
2022/12/30 03:54:11;;;;;;;116.67;112.37;;;4.20;99.90;;;;;;5045750;28;20487;-84
2022/12/30 03:56:38;;;;;;;233.37;224.97;;;4.10;99.90;;;;;;5045597;28;20482;-84
2022/12/30 03:59:05;;;;;;;340.30;328.10;;;3.90;99.90;;;;;;5045718;28;20456;-84
2022/12/30 04:01:31;;;;;;;364.53;351.00;;;4.00;99.90;;;;;;5045758;28;20885;-84
2022/12/30 04:03:58;;;;;;;376.17;362.57;;;3.90;99.90;;;;;;5044319;28;20484;-83
2022/12/30 04:06:25;;;;;;;415.30;399.77;;;3.70;99.90;;;;;;5043737;28;20477;-83
2022/12/30 04:08:53;;;;;;;524.17;502.10;;;3.50;99.90;;;;;;5045047;28;20452;-83
2022/12/30 04:11:21;;;;;;;551.40;526.97;;;3.60;99.90;;;;;;5044051;28;20487;-83
2022/12/30 04:13:48;;;;;;;429.43;412.97;;;3.70;99.90;;;;;;5043838;28;20448;-83
2022/12/30 04:16:15;;;;;;;326.13;314.57;;;3.90;99.90;;;;;;5043760;28;20507;-84
2022/12/30 04:18:42;;;;;;;289.67;279.77;;;4.00;99.90;;;;;;5043817;28;20457;-84
2022/12/30 04:21:08;;;;;;;336.20;323.90;;;4.20;99.90;;;;;;5043975;28;20452;-84
2022/12/30 04:23:35;;;;;;;460.10;441.20;;;4.20;99.90;;;;;;5044102;28;20452;-84
2022/12/30 04:26:04;;;;;;;482.70;462.20;;;4.20;99.90;;;;;;5043025;28;20484;-83
2022/12/30 04:28:30;;;;;;;472.33;453.83;;;4.00;99.90;;;;;;5042499;28;20455;-83
2022/12/30 04:30:57;;;;;;;463.53;445.47;;;3.90;99.90;;;;;;5043048;28;20563;-84
2022/12/30 04:33:24;;;;;;;430.13;414.03;;;3.70;99.90;;;;;;5042352;28;20452;-83
2022/12/30 04:35:50;;;;;;;415.73;400.57;;;3.40;99.90;;;;;;5041847;28;20488;-83
2022/12/30 04:38:17;;;;;;;478.77;460.10;;;3.30;99.90;;;;;;5042548;28;20467;-83
2022/12/30 04:40:44;;;;;;;567.07;543.87;;;3.10;99.90;;;;;;5042091;28;20474;-83
2022/12/30 04:43:12;;;;;;;639.43;608.97;;;3.00;99.90;;;;;;5042131;28;20825;-84
2022/12/30 04:45:39;;;;;;;685.63;652.47;;;2.90;99.90;;;;;;5043056;28;20840;-83
2022/12/30 04:48:06;;;;;;;722.93;685.37;;;2.90;99.90;;;;;;5043084;28;20452;-83
2022/12/30 04:50:33;;;;;;;747.70;706.10;;;2.70;99.90;;;;;;5044372;28;20468;-83
2022/12/30 04:53:00;;;;;;;757.97;713.77;;;2.60;99.90;;;;;;5043274;28;20897;-84
2022/12/30 04:55:27;;;;;;;770.73;724.00;;;2.50;99.90;;;;;;5042181;28;20479;-83
2022/12/30 04:57:53;;;;;;;773.97;725.67;;;2.60;99.90;;;;;;5043266;28;20516;-83
2022/12/30 05:00:21;;;;;;;777.70;727.17;;;2.70;99.90;;;;;;5043145;28;20448;-83
2022/12/30 05:02:48;;;;;;;769.20;716.70;;;2.70;99.90;;;;;;5042168;28;20452;-83
2022/12/30 05:05:15;;;;;;;767.20;714.50;;;2.90;99.90;;;;;;5041224;28;20473;-83
2022/12/30 05:07:42;;;;;;;753.27;701.20;;;3.20;99.90;;;;;;5041283;28;20476;-83
2022/12/30 05:10:09;;;;;;;764.83;712.43;;;3.30;99.90;;;;;;5041567;28;20484;-83
2022/12/30 05:12:36;;;;;;;758.27;704.37;;;3.40;99.90;;;;;;5041928;28;20465;-84
2022/12/30 05:15:03;;;;;;;753.90;701.37;;;3.30;99.90;;;;;;5041909;28;20523;-84
2022/12/30 05:17:31;;;;;;;767.50;714.60;;;3.30;99.90;;;;;;5042548;28;20454;-84
2022/12/30 05:19:58;;;;;;;771.20;718.97;;;3.20;99.90;;;;;;5041871;28;20453;-83
2022/12/30 05:22:25;;;;;;;759.07;706.33;;;3.20;99.90;;;;;;5042822;28;20448;-84
2022/12/30 05:27:37;;;;;;;764.23;711.30;;;3.10;99.90;;;;;;5041503;28;20463;-83
2022/12/30 05:30:05;;;;;;;774.70;717.70;;;3.30;99.90;;;;;;5041950;28;20998;-83
2022/12/30 05:32:33;;;;;;;759.60;704.10;;;3.40;99.90;;;;;;5043051;28;20836;-83
2022/12/30 05:35:00;;;;;;;744.60;689.83;;;3.60;99.90;;;;;;5042877;28;20463;-83
2022/12/30 05:37:27;;;;;;;731.80;680.67;;;3.80;99.90;;;;;;5043331;28;20463;-84
2022/12/30 05:39:53;;;;;;;715.67;667.97;;;3.90;99.90;;;;;;5044180;28;20458;-84
2022/12/30 05:42:20;;;;;;;668.03;626.20;;;4.00;99.90;;;;;;5043088;28;20449;-84
2022/12/30 05:44:47;;;;;;;639.00;600.97;;;4.20;99.90;;;;;;5042111;28;20462;-84
2022/12/30 05:47:14;;;;;;;624.17;588.80;;;4.20;99.90;;;;;;5041529;28;20507;-83
2022/12/30 05:49:42;;;;;;;609.30;574.70;;;4.20;99.90;;;;;;5040872;28;20449;-83
2022/12/30 05:52:08;;;;;;;569.73;539.13;;;4.30;99.90;;;;;;5040151;28;20476;-83
2022/12/30 05:54:35;;;;;;;547.67;519.73;;;4.30;99.90;;;;;;5041399;28;20463;-83
2022/12/30 05:57:02;;;;;;;535.83;508.13;;;4.30;99.90;;;;;;5042895;28;20475;-83
2022/12/30 05:59:29;;;;;;;517.90;493.33;;;4.20;99.90;;;;;;5042492;28;20464;-84
2022/12/30 06:01:55;;;;;;;496.10;473.50;;;4.30;99.90;;;;;;5042551;28;20471;-83
2022/12/30 06:04:22;;;;;;;447.70;429.33;;;4.30;99.90;;;;;;5041590;28;20452;-82
2022/12/30 06:06:50;;;;;;;431.30;413.53;;;4.40;99.90;;;;;;5042261;28;20512;-85
2022/12/30 06:09:17;;;;;;;419.90;402.10;;;4.40;99.90;;;;;;5042887;28;20456;-84
2022/12/30 06:11:44;;;;;;;366.90;352.60;;;4.30;99.90;;;;;;5041333;28;20865;-83
2022/12/30 06:14:12;;;;;;;353.90;340.83;;;4.10;99.90;;;;;;5040997;28;20949;-84
2022/12/30 06:16:38;;;;;;;377.17;362.67;;;3.80;99.90;;;;;;5040755;28;20518;-83
2022/12/30 06:19:05;;;;;;;421.83;406.33;;;3.60;99.90;;;;;;5040480;28;20486;-83
2022/12/30 06:21:32;;;;;;;476.47;458.80;;;3.50;99.90;;;;;;5040424;28;20448;-83
2022/12/30 06:24:00;;;;;;;551.93;529.27;;;3.40;99.90;;;;;;5043420;28;20458;-84
2022/12/30 06:26:27;;;;;;;600.90;574.53;;;3.40;99.90;;;;;;5043811;28;20478;-83
2022/12/30 06:28:54;;;;;;;625.43;596.33;;;3.30;99.90;;;;;;5043316;28;20547;-83
2022/12/30 06:31:21;;;;;;;652.33;620.43;;;3.40;99.90;;;;;;5043350;28;20503;-84
2022/12/30 06:33:48;;;;;;;671.97;637.27;;;3.40;99.90;;;;;;5043825;28;20532;-83
2022/12/30 06:36:16;;;;;;;679.70;644.03;;;3.40;99.90;;;;;;5043194;28;20479;-83
2022/12/30 06:38:43;;;;;;;681.97;645.30;;;3.30;99.90;;;;;;5043150;28;20448;-84
2022/12/30 06:41:11;;;;;;;691.73;654.57;;;3.40;99.90;;;;;;5042271;28;21011;-83
2022/12/30 06:43:38;;;;;;;702.13;663.13;;;3.40;99.90;;;;;;5042832;28;20470;-84
2022/12/30 06:46:05;;;;;;;688.23;650.27;;;3.50;99.90;;;;;;5042739;28;20506;-84
2022/12/30 06:48:32;;;;;;;706.97;666.70;;;3.50;99.90;;;;;;5041519;28;20455;-84
2022/12/30 06:51:00;;;;;;;699.67;660.60;;;3.50;99.90;;;;;;5044042;28;20476;-84
2022/12/30 06:53:27;;;;;;;689.00;648.77;;;3.60;99.90;;;;;;5043719;28;20980;-84
2022/12/30 06:55:54;;;;;;;691.83;652.33;;;3.50;99.90;;;;;;5044472;28;20478;-84
2022/12/30 06:58:22;;;;;;;697.47;655.93;;;3.60;99.90;;;;;;5040637;28;20459;-83
2022/12/30 07:00:49;;;;;;;696.80;655.27;;;3.60;99.90;;;;;;5041420;28;21012;-85
2022/12/30 07:03:16;;;;;;;691.13;650.10;;;3.70;99.90;;;;;;5040233;28;20448;-84
2022/12/30 07:05:42;;;;;;;683.17;642.90;;;3.70;99.90;;;;;;5043737;28;20471;-84
2022/12/30 07:08:09;;;;;;;675.77;638.07;;;3.70;99.90;;;;;;5044172;28;20455;-83
2022/12/30 07:10:36;;;;;;;669.47;632.37;;;3.80;99.90;;;;;;5044942;28;20490;-84
2022/12/30 07:13:03;;;;;;;644.17;609.37;;;3.80;99.90;;;;;;5045295;28;20799;-84
2022/12/30 07:15:31;;;;;;;644.20;609.77;;;3.80;99.90;;;;;;5043519;28;20866;-84
2022/12/30 07:17:57;;;;;;;647.00;613.00;;;3.80;99.90;;;;;;5044758;28;20459;-85
2022/12/30 07:20:24;;;;;;;651.03;617.43;;;3.80;99.90;;;;;;5045260;28;20452;-84
2022/12/30 07:22:51;;;;;;;646.37;611.30;;;3.80;99.90;;;;;;5045122;28;20961;-84
2022/12/30 07:25:18;;;;;;;638.67;606.70;;;3.80;99.90;;;;;;5047610;28;20472;-84
2022/12/30 07:27:45;;;;;;;633.60;601.67;;;3.80;99.90;;;;;;5046403;28;20462;-85
2022/12/30 07:30:12;;;;;;;646.00;612.20;;;3.80;99.90;;;;;;5045010;28;20458;-83
2022/12/30 07:32:40;;;;;;;649.50;613.80;;;3.80;99.90;;;;;;5042692;28;20507;-84
2022/12/30 07:35:08;;;;;;;646.30;612.00;;;3.80;99.90;;;;;;5041062;28;20458;-83
2022/12/30 07:37:35;;;;;;;659.77;623.87;;;3.90;99.90;;;;;;5040817;28;20456;-84
2022/12/30 07:40:02;;;;;;;655.73;619.53;;;3.90;99.90;;;;;;5042653;28;20452;-84
2022/12/30 07:42:28;;;;;;;649.17;613.17;;;4.00;99.90;;;;;;5042008;28;20525;-84
2022/12/30 07:44:55;;;;;;;637.80;602.20;;;4.00;99.90;;;;;;5041255;28;20448;-84
2022/12/30 07:47:22;;;;;;;614.23;580.37;;;4.20;99.90;;;;;;5040427;28;20452;-84
2022/12/30 07:49:50;;;;;;;574.90;544.50;;;4.20;99.90;;;;;;5041058;28;20465;-84
2022/12/30 07:52:16;;;;;;;536.77;509.60;;;4.20;99.90;;;;;;5041422;28;20472;-84
2022/12/30 07:54:43;;;;;;;529.30;503.43;;;4.30;99.90;;;;;;5034442;28;20457;-82
2022/12/30 07:57:10;;;;;;;516.07;492.07;;;4.40;99.90;;;;;;5022309;28;20564;-84
2022/12/30 07:59:37;;;;;;;523.20;498.80;;;4.40;99.90;;;;;;5019913;28;20472;-83
2022/12/30 08:02:03;;;;;;;526.60;502.50;;;4.40;99.90;;;;;;5020627;28;20514;-82
2022/12/30 08:04:30;;;;;;;534.90;510.10;;;4.40;99.90;;;;;;5020257;28;20481;-82
2022/12/30 08:06:58;;;;;;;541.63;515.87;;;4.40;99.90;;;;;;5020989;28;20500;-83
2022/12/30 08:09:25;;;;;;;548.03;523.07;;;4.50;99.90;;;;;;5021340;28;20449;-83
2022/12/30 08:11:52;;;;;;;538.63;514.17;;;4.50;99.90;;;;;;5020739;28;20488;-83
2022/12/30 08:14:24;;;;;;;533.87;509.73;;;4.60;99.90;;;;;;5020656;28;20487;-84
2022/12/30 08:16:51;;;;;;;507.30;484.30;;;4.60;99.90;;;;;;5020930;28;20477;-84
2022/12/30 08:19:35;;;;;;;501.07;478.37;;;4.70;99.90;;;;;;5020406;28;20453;-83
2022/12/30 08:22:03;;;;;;;504.20;481.30;;;4.80;99.90;;;;;;5021144;28;20433;-83
2022/12/30 08:24:30;;;;;;;497.37;474.77;;;4.80;99.90;;;;;;5018681;28;20459;-83
2022/12/30 08:27:28;;;;;;;491.97;469.67;;;4.80;99.90;;;;;;5039433;22;20492;-84
2022/12/30 08:29:58;;;;;;;487.60;465.40;;;5.00;99.90;;;;;;5040542;28;20483;-84
2022/12/30 08:32:25;;;;;;;456.80;436.90;;;5.20;99.90;;;;;;5041628;28;20499;-82
2022/12/30 08:35:02;;;;;;;440.93;422.47;;;5.20;99.90;;;;;;5037591;28;20456;-83
2022/12/30 08:37:30;;;;;;;418.03;399.57;;;5.30;99.90;;;;;;5038916;28;20507;-85
2022/12/30 08:39:57;;;;;;;380.37;363.80;;;5.40;99.90;;;;;;5041081;28;20463;-84
2022/12/30 08:42:23;;;;;;;353.80;339.43;;;5.50;99.90;;;;;;5042628;28;20452;-85
2022/12/30 08:47:19;;;;;;;284.50;273.40;;;5.70;99.90;;;;;;5066862;22;20516;-84
2022/12/30 08:50:28;;;;;;;206.33;198.23;;;5.90;99.90;;;;;;5021032;28;20456;-84
2022/12/30 08:52:57;;;;;;;149.87;143.40;;;6.30;99.90;;;;;;4976867;28;20494;-84
2022/12/30 08:55:24;;;;;;;106.90;103.10;;;6.60;99.90;;;;;;5022122;28;20501;-84
2022/12/30 08:57:51;;;;;;;79.67;76.83;;;6.90;99.90;;;;;;5022251;28;20957;-84
2022/12/30 09:00:18;;;;;;;63.00;60.63;;;7.00;99.90;;;;;;5022911;28;20962;-85
2022/12/30 09:02:45;;;;;;;46.50;44.33;;;7.10;99.90;;;;;;5023013;28;20464;-87
2022/12/30 09:05:12;;;;;;;30.40;28.67;;;7.30;99.90;;;;;;5021715;28;20473;-84
2022/12/30 09:07:59;;;;;;;31.17;29.20;;;7.40;99.90;;;;;;5022574;28;20460;-84
2022/12/30 09:10:28;;;;;;;26.93;25.53;;;7.60;99.90;;;;;;5020791;28;20457;-84
2022/12/30 09:12:54;;;;;;;16.33;14.73;;;7.70;99.90;;;;;;5022772;28;20477;-84
2022/12/30 09:15:21;;;;;;;16.47;14.90;;;7.80;99.90;;;;;;5022263;28;20484;-84
2022/12/30 09:17:48;;;;;;;12.33;9.20;;;8.00;99.90;;;;;;5022599;28;20453;-84
2022/12/30 09:20:15;;;;;;;14.17;10.50;;;8.10;99.90;;;;;;5022787;28;20454;-84
2022/12/30 09:22:41;;;;;;;8.53;7.83;;;8.20;99.90;;;;;;5022243;28;20453;-84
2022/12/30 09:25:54;;;;;;;8.77;8.07;;;8.30;99.90;;;;;;5022065;28;20505;-84
2022/12/30 09:28:22;;;;;;;7.17;5.63;;;8.40;99.90;;;;;;5021570;28;20477;-85
2022/12/30 09:33:30;;;;;;;5.60;2.77;;;8.50;99.90;;;;;;4980141;28;20486;-83
2022/12/30 09:38:57;;;;;;;8.87;3.30;;;8.40;99.90;;;;;;5002501;28;20461;-84
2022/12/30 09:44:50;;;;;;;8.30;2.60;;;8.30;99.90;;;;;;5022470;28;20488;-84
2022/12/30 09:47:22;;;;;;;9.57;2.60;;;8.30;99.90;;;;;;5020079;28;20994;-84
2022/12/30 09:49:53;;;;;;;8.20;2.10;;;8.30;99.90;;;;;;5020896;28;20201;-84
2022/12/30 09:52:26;;;;;;;10.00;2.43;;;8.40;99.90;;;;;;5020567;28;20483;-85
2022/12/30 09:54:56;;;;;;;10.33;2.87;;;8.30;99.90;;;;;;5020350;28;20548;-83
2022/12/30 09:57:33;;;;;;;14.40;2.60;;;8.40;99.90;;;;;;5021108;28;20457;-85
2022/12/30 10:00:18;;;;;;;8.57;2.90;;;8.40;99.90;;;;;;5020847;28;20551;-84
2022/12/30 10:03:03;;;;;;;14.10;2.70;;;8.50;99.90;;;;;;5020232;28;20468;-84
2022/12/30 10:05:41;;;;;;;6.80;2.30;;;8.60;99.90;;;;;;5020389;28;20568;-85
2022/12/30 10:08:23;;;;;;;10.00;2.33;;;8.60;99.90;;;;;;5021449;28;20468;-84
2022/12/30 10:10:55;;;;;;;6.37;2.63;;;8.70;99.90;;;;;;5020851;28;20453;-84
2022/12/30 10:13:30;;;;;;;13.50;3.13;;;8.70;99.90;;;;;;5021162;28;20500;-85
2022/12/30 10:16:05;;;;;;;8.50;2.43;;;8.70;99.90;;;;;;5020963;28;20480;-84
2022/12/30 10:19:14;;;;;;;7.63;2.33;;;8.80;99.90;;;;;;5020876;28;20453;-84
2022/12/30 10:22:14;;;;;;;11.93;3.00;;;8.80;99.90;;;;;;5021373;28;20892;-85
2022/12/30 10:27:56;;;;;;;6.70;2.57;;;9.00;99.90;;;;;;4967023;28;20451;-84
2022/12/30 10:30:40;;;;;;;8.10;2.60;;;8.80;99.90;;;;;;4979280;28;20473;-84
2022/12/30 10:33:51;;;;;;;6.07;2.00;;;8.80;99.90;;;;;;5020033;28;20484;-85
2022/12/30 10:36:24;;;;;;;5.23;1.80;;;8.80;99.90;;;;;;5012799;28;20481;-86
2022/12/30 10:38:57;;;;;;;7.17;2.50;;;8.80;99.90;;;;;;5023126;28;20453;-84
2022/12/30 10:41:36;;;;;;;8.93;2.87;;;8.80;99.90;;;;;;5024911;28;20547;-84
2022/12/30 10:44:15;;;;;;;7.23;2.53;;;8.80;99.90;;;;;;5024953;28;20463;-84
2022/12/30 10:47:09;;;;;;;6.97;1.80;;;8.90;99.90;;;;;;5024271;28;20485;-84
2022/12/30 10:50:05;;;;;;;5.70;2.30;;;8.90;99.90;;;;;;5022445;28;20449;-83
2022/12/30 10:52:34;;;;;;;5.07;1.53;;;8.90;99.90;;;;;;5025404;28;20478;-85
2022/12/30 10:55:01;;;;;;;9.20;2.47;;;9.00;99.90;;;;;;5024923;28;20488;-84
2022/12/30 10:58:01;;;;;;;9.67;1.73;;;8.90;99.90;;;;;;5024425;28;20465;-85
2022/12/30 11:00:28;;;;;;;9.50;2.17;;;9.00;99.90;;;;;;5025349;28;20456;-84
2022/12/30 11:02:57;;;;;;;5.10;2.03;;;8.90;99.90;;;;;;5025294;28;20453;-84
2022/12/30 11:05:31;;;;;;;3.80;1.43;;;9.00;99.90;;;;;;5024704;28;20473;-86
2022/12/30 11:08:00;;;;;;;4.67;1.40;;;9.00;99.90;;;;;;5024090;28;20554;-83
2022/12/30 11:10:29;;;;;;;10.40;1.83;;;9.00;99.90;;;;;;5023935;28;20453;-84
2022/12/30 11:16:12;;;;;;;10.33;1.57;;;9.10;99.90;;;;;;5025270;28;20475;-85
2022/12/30 11:18:44;;;;;;;9.73;1.80;;;9.10;99.90;;;;;;5025003;28;20465;-84
2022/12/30 11:31:02;;;;;;;6.63;1.40;;;9.10;99.90;;;;;;5005041;28;20449;-85
2022/12/30 11:33:33;;;;;;;12.77;1.87;;;9.20;99.90;;;;;;5020563;28;20504;-85
2022/12/30 11:36:15;;;;;;;3.57;1.40;;;9.20;99.90;;;;;;5024953;28;20912;-85
2022/12/30 11:39:11;;;;;;;6.07;1.60;;;9.20;99.90;;;;;;5024484;28;20456;-84
2022/12/30 11:41:47;;;;;;;7.90;1.57;;;9.20;99.90;;;;;;5024832;28;20457;-84
2022/12/30 11:44:16;;;;;;;8.33;2.07;;;9.20;99.90;;;;;;5023916;28;20736;-84
2022/12/30 11:46:46;;;;;;;5.17;1.90;;;9.20;99.90;;;;;;5023158;28;20484;-84
2022/12/30 11:49:33;;;;;;;6.10;2.33;;;9.20;99.90;;;;;;5023916;28;20959;-84
2022/12/30 11:52:08;;;;;;;6.30;1.53;;;9.20;99.90;;;;;;5024124;28;20481;-84
2022/12/30 11:54:52;;;;;;;6.30;1.17;;;9.20;99.90;;;;;;5023872;28;20433;-84
2022/12/30 11:57:22;;;;;;;8.60;1.63;;;9.20;99.90;;;;;;5023378;28;20505;-84
2022/12/30 11:59:52;;;;;;;4.30;1.70;;;9.20;99.90;;;;;;5023820;28;20480;-84
2022/12/30 12:02:24;;;;;;;5.87;1.60;;;9.20;99.90;;;;;;5024005;28;20463;-84
2022/12/30 12:04:51;;;;;;;7.50;2.37;;;9.00;99.90;;;;;;5022327;28;20807;-82
2022/12/30 12:07:26;;;;;;;6.67;2.23;;;9.10;99.90;;;;;;5022923;28;20453;-85
2022/12/30 12:10:04;;;;;;;5.33;2.03;;;9.00;99.90;;;;;;5023740;28;20457;-85
2022/12/30 12:12:36;;;;;;;4.83;2.00;;;9.00;99.90;;;;;;5024010;28;20476;-84
2022/12/30 12:15:13;;;;;;;6.17;1.80;;;9.00;99.90;;;;;;5025564;28;20841;-86
2022/12/30 12:17:47;;;;;;;8.47;2.10;;;9.10;99.90;;;;;;5023973;28;20452;-84
2022/12/30 12:20:22;;;;;;;5.23;1.50;;;9.10;99.90;;;;;;5022177;28;20453;-85
2022/12/30 12:23:00;;;;;;;4.73;1.33;;;9.00;99.90;;;;;;5022297;28;20871;-85
2022/12/30 12:25:33;;;;;;;9.17;1.60;;;9.10;99.90;;;;;;5021054;28;20512;-86
2022/12/30 12:28:00;;;;;;;8.83;2.00;;;9.00;99.90;;;;;;5020606;28;20467;-85
2022/12/30 12:30:40;;;;;;;8.00;1.63;;;9.00;99.90;;;;;;5021342;28;20934;-85
2022/12/30 12:33:19;;;;;;;6.83;1.67;;;9.10;99.90;;;;;;5024158;28;20552;-85
2022/12/30 12:35:52;;;;;;;18.20;2.17;;;9.00;99.90;;;;;;5022437;28;20483;-85
2022/12/30 12:38:33;;;;;;;8.43;1.90;;;9.10;99.90;;;;;;5022688;28;20858;-85
2022/12/30 12:41:17;;;;;;;4.60;1.73;;;9.10;99.90;;;;;;5021722;28;20262;-84
2022/12/30 12:43:55;;;;;;;6.60;1.40;;;9.20;99.90;;;;;;5021067;28;20941;-85
2022/12/30 12:46:36;;;;;;;8.50;2.67;;;9.20;99.90;;;;;;5018650;28;20477;-86
2022/12/30 12:49:35;;;;;;;9.27;2.20;;;9.30;99.90;;;;;;5016392;28;20536;-85
2022/12/30 12:52:13;;;;;;;6.40;1.92;;;9.20;99.90;;;;;;5022115;28;20461;-85
2022/12/30 12:55:17;;;;;;;8.00;2.47;;;9.20;99.90;;;;;;5023153;28;20186;-86
2022/12/30 12:57:53;;;;;;;4.57;1.83;;;9.20;99.90;;;;;;5022220;28;20452;-85
2022/12/30 13:00:22;;;;;;;14.30;2.67;;;9.10;99.90;;;;;;5023461;28;20457;-84
2022/12/30 13:03:33;;;;;;;7.50;2.00;;;9.10;99.90;;;;;;5021802;28;20452;-84
2022/12/30 13:06:08;;;;;;;11.13;2.20;;;8.80;99.90;;;;;;5021947;28;20567;-84
2022/12/30 13:08:58;;;;;;;5.60;2.33;;;8.80;99.90;;;;;;5022159;28;20468;-84
2022/12/30 13:11:36;;;;;;;8.10;2.90;;;8.60;99.90;;;;;;5021952;28;20480;-83
2022/12/30 13:14:14;;;;;;;6.23;2.70;;;8.60;99.90;;;;;;5021459;28;20864;-83
2022/12/30 13:16:44;;;;;;;8.83;5.53;;;8.50;99.90;;;;;;5024177;28;20476;-82
2022/12/30 13:19:13;;;;;;;6.40;5.80;;;8.40;99.90;;;;;;5022082;28;20457;-85
2022/12/30 13:21:43;;;;;;;5.87;5.27;;;8.30;99.90;;;;;;5025941;28;20449;-85
2022/12/30 13:24:19;;;;;;;9.23;4.40;;;8.40;99.90;;;;;;5023734;28;21004;-84
2022/12/30 13:26:46;;;;;;;8.70;4.30;;;8.40;99.90;;;;;;5024985;28;20469;-85
2022/12/30 13:29:14;;;;;;;6.67;4.47;;;8.50;99.90;;;;;;5020934;28;20460;-83
2022/12/30 13:31:46;;;;;;;9.40;7.17;;;8.40;99.90;;;;;;5021153;28;20942;-83
2022/12/30 13:34:23;;;;;;;35.37;33.83;;;8.40;99.90;;;;;;5020884;28;20487;-83
2022/12/30 13:36:57;;;;;;;112.03;108.03;;;8.30;99.90;;;;;;5020338;28;20473;-83
2022/12/30 13:39:32;;;;;;;160.80;155.43;;;8.10;99.90;;;;;;5021325;28;20849;-83
2022/12/30 13:42:42;;;;;;;252.07;244.20;;;8.10;99.90;;;;;;5020924;28;20461;-82
2022/12/30 13:45:23;;;;;;;251.20;243.50;;;8.00;99.90;;;;;;5020231;28;20449;-84
2022/12/30 13:47:57;;;;;;;379.20;367.70;;;8.00;99.90;;;;;;5020834;28;20464;-84
2022/12/30 13:50:31;;;;;;;459.70;445.17;;;7.90;99.90;;;;;;5020333;28;20941;-84
2022/12/30 13:53:11;;;;;;;556.07;536.57;;;8.00;99.90;;;;;;5019903;28;20519;-84
2022/12/30 13:56:00;;;;;;;615.40;589.37;;;8.00;99.90;;;;;;5019745;28;20480;-84
2022/12/30 13:58:30;;;;;;;632.80;605.23;;;8.00;99.90;;;;;;5020155;28;20457;-83
2022/12/30 14:01:40;;;;;;;659.53;629.20;;;7.90;99.90;;;;;;5019896;28;20457;-83
2022/12/30 14:04:29;;;;;;;669.43;635.53;;;8.00;99.90;;;;;;5019240;28;20449;-83
2022/12/30 14:06:56;;;;;;;660.67;627.67;;;7.90;99.90;;;;;;5019470;28;20970;-83
2022/12/30 14:09:25;;;;;;;669.40;634.20;;;7.90;99.90;;;;;;5020145;28;20445;-83
2022/12/30 14:12:25;;;;;;;659.97;627.40;;;8.00;99.90;;;;;;5019916;28;20446;-84
2022/12/30 14:14:52;;;;;;;665.27;629.87;;;8.10;99.90;;;;;;5015754;28;21077;-82
2022/12/30 14:17:25;;;;;;;688.07;648.87;;;8.10;99.90;;;;;;5019355;28;20452;-83